createdAt,value
2023-05-19T03:59:12.169Z,300.00
2023-05-19T04:00:12.058Z,308.00
2023-05-19T04:01:12.062Z,320.00
2023-05-19T04:02:12.033Z,332.00
2023-05-19T04:03:12.200Z,340.00
2023-05-19T04:04:12.036Z,352.00
2023-05-19T04:05:12.023Z,364.00
2023-05-19T04:06:12.000Z,380.00
2023-05-19T04:07:12.008Z,392.00
2023-05-19T04:08:11.984Z,404.00
2023-05-19T04:09:11.988Z,416.00
2023-05-19T04:10:11.981Z,428.00
2023-05-19T04:11:11.983Z,440.00
2023-05-19T04:12:11.962Z,452.00
2023-05-19T04:13:11.950Z,464.00
2023-05-19T04:14:11.986Z,472.00
2023-05-19T04:15:11.977Z,488.00
2023-05-19T04:16:11.989Z,500.00
2023-05-19T04:17:11.947Z,508.00
2023-05-19T04:18:11.958Z,520.00
2023-05-19T04:19:12.076Z,528.00
2023-05-19T04:20:11.939Z,540.00
2023-05-19T04:21:11.951Z,548.00
2023-05-19T04:22:11.917Z,556.00
2023-05-19T04:23:11.918Z,564.00
2023-05-19T04:24:11.939Z,572.00
2023-05-19T04:25:11.917Z,580.00
2023-05-19T04:26:11.959Z,592.00
2023-05-19T04:27:11.940Z,596.00
2023-05-19T04:28:11.915Z,608.00
2023-05-19T04:29:11.938Z,612.00
2023-05-19T04:30:11.902Z,620.00
2023-05-19T04:31:11.994Z,628.00
2023-05-19T04:32:11.933Z,632.00
2023-05-19T04:33:11.979Z,644.00
2023-05-19T04:34:11.908Z,644.00
2023-05-19T04:35:11.903Z,652.00
2023-05-19T04:36:11.870Z,652.00
2023-05-19T04:37:11.873Z,656.00
2023-05-19T04:38:11.872Z,664.00
2023-05-19T04:39:11.884Z,676.00
2023-05-19T04:40:11.870Z,692.00
2023-05-19T04:41:11.870Z,700.00
2023-05-19T04:42:11.867Z,712.00
2023-05-19T04:43:11.869Z,720.00
2023-05-19T04:44:11.886Z,732.00
2023-05-19T04:45:11.846Z,744.00
2023-05-19T04:46:13.392Z,752.00
2023-05-19T04:47:11.950Z,756.00
2023-05-19T04:48:11.828Z,764.00
2023-05-19T04:49:11.832Z,772.00
2023-05-19T04:50:11.833Z,780.00
2023-05-19T04:51:11.833Z,788.00
2023-05-19T04:52:11.856Z,812.00
2023-05-19T04:53:11.829Z,848.00
2023-05-19T04:54:11.826Z,936.00
2023-05-19T04:55:11.808Z,1016.00
2023-05-19T04:56:11.799Z,1076.00
2023-05-19T04:57:11.791Z,1164.00
2023-05-19T04:58:11.801Z,1260.00
2023-05-19T04:59:11.790Z,1336.00
2023-05-19T05:00:11.808Z,1424.00
2023-05-19T05:01:11.809Z,1520.00
2023-05-19T05:02:11.932Z,1616.00
2023-05-19T05:03:11.877Z,1704.00
2023-05-19T05:04:11.847Z,1768.00
2023-05-19T05:05:11.773Z,1804.00
2023-05-19T05:06:11.756Z,1812.00
2023-05-19T05:07:11.771Z,1792.00
2023-05-19T05:08:11.807Z,1756.00
2023-05-19T05:09:11.771Z,1736.00
2023-05-19T05:10:11.746Z,1724.00
2023-05-19T05:11:11.753Z,1712.00
2023-05-19T05:12:11.783Z,1716.00
2023-05-19T05:13:12.051Z,1752.00
2023-05-19T05:14:11.765Z,1832.00
2023-05-19T05:15:11.745Z,1848.00
2023-05-19T05:16:11.762Z,1748.00
2023-05-19T05:17:11.741Z,1644.00
2023-05-19T05:18:11.718Z,1604.00
2023-05-19T05:19:11.832Z,1520.00
2023-05-19T05:20:11.724Z,1392.00
2023-05-19T05:21:11.728Z,1316.00
2023-05-19T05:22:11.718Z,1264.00
2023-05-19T05:23:11.754Z,1244.00
2023-05-19T05:24:11.731Z,1280.00
2023-05-19T05:25:11.700Z,1348.00
2023-05-19T05:26:11.695Z,1448.00
2023-05-19T05:27:11.703Z,1576.00
2023-05-19T05:28:11.693Z,1680.00
2023-05-19T05:29:11.685Z,1852.00
2023-05-19T05:30:11.700Z,2096.00
2023-05-19T05:31:11.699Z,2232.00
2023-05-19T05:32:11.712Z,2320.00
2023-05-19T05:33:11.850Z,2372.00
2023-05-19T05:34:11.707Z,2412.00
2023-05-19T05:35:11.719Z,2440.00
2023-05-19T05:36:11.697Z,2468.00
2023-05-19T05:37:13.829Z,2512.00
2023-05-19T05:38:11.756Z,2568.00
2023-05-19T05:39:11.660Z,2628.00
2023-05-19T05:40:11.656Z,2680.00
2023-05-19T05:41:11.660Z,2716.00
2023-05-19T05:42:11.669Z,2764.00
2023-05-19T05:43:11.660Z,2788.00
2023-05-19T05:44:11.656Z,2816.00
2023-05-19T05:45:11.670Z,2836.00
2023-05-19T05:46:11.748Z,2856.00
2023-05-19T05:47:11.636Z,2876.00
2023-05-19T05:48:11.746Z,2896.00
2023-05-19T05:49:11.646Z,2924.00
2023-05-19T05:50:11.634Z,2952.00
2023-05-19T05:51:11.682Z,2972.00
2023-05-19T05:52:11.620Z,3004.00
2023-05-19T05:53:11.619Z,3032.00
2023-05-19T05:54:11.686Z,3060.00
2023-05-19T05:55:11.634Z,3080.00
2023-05-19T05:56:11.649Z,3104.00
2023-05-19T05:57:11.626Z,3128.00
2023-05-19T05:58:11.619Z,3148.00
2023-05-19T05:59:11.616Z,3176.00
2023-05-19T06:00:11.616Z,3196.00
2023-05-19T06:01:11.611Z,3224.00
2023-05-19T06:02:32.731Z,3248.00
2023-05-19T06:03:11.816Z,3280.00
2023-05-19T06:04:11.623Z,3304.00
2023-05-19T06:05:11.650Z,3332.00
2023-05-19T06:06:11.649Z,3352.00
2023-05-19T06:07:11.620Z,3380.00
2023-05-19T06:08:11.599Z,3404.00
2023-05-19T06:09:11.589Z,3440.00
2023-05-19T06:10:11.623Z,3468.00
2023-05-19T06:11:11.626Z,3496.00
2023-05-19T06:12:11.582Z,3516.00
2023-05-19T06:13:11.581Z,3552.00
2023-05-19T06:14:11.578Z,3576.00
2023-05-19T06:15:11.594Z,3596.00
2023-05-19T06:16:11.720Z,3628.00
2023-05-19T06:17:11.578Z,3656.00
2023-05-19T06:18:11.634Z,3696.00
2023-05-19T06:19:11.660Z,3732.00
2023-05-19T06:20:11.566Z,3752.00
2023-05-19T06:21:11.607Z,3776.00
2023-05-19T06:22:11.553Z,3788.00
2023-05-19T06:23:11.573Z,3812.00
2023-05-19T06:24:11.569Z,3844.00
2023-05-19T06:25:11.559Z,3868.00
2023-05-19T06:26:11.596Z,3896.00
2023-05-19T06:27:11.558Z,3924.00
2023-05-19T06:28:11.576Z,3964.00
2023-05-19T06:29:11.546Z,3992.00
2023-05-19T06:30:11.559Z,4020.00
2023-05-19T06:31:11.655Z,4052.00
2023-05-19T06:32:11.590Z,4076.00
2023-05-19T06:33:11.542Z,4108.00
2023-05-19T06:34:11.550Z,4132.00
2023-05-19T06:35:11.558Z,4168.00
2023-05-19T06:36:11.564Z,4184.00
2023-05-19T06:37:11.534Z,4212.00
2023-05-19T06:38:11.542Z,4228.00
2023-05-19T06:39:11.601Z,4248.00
2023-05-19T06:40:11.553Z,4252.00
2023-05-19T06:41:11.541Z,4268.00
2023-05-19T06:42:11.530Z,4280.00
2023-05-19T06:43:11.564Z,4292.00
2023-05-19T06:44:11.537Z,4304.00
2023-05-19T06:45:11.575Z,4308.00
2023-05-19T06:46:11.526Z,4324.00
2023-05-19T06:47:11.617Z,4328.00
2023-05-19T06:48:11.595Z,4348.00
2023-05-19T06:49:11.544Z,4368.00
2023-05-19T06:50:11.535Z,4372.00
2023-05-19T06:51:11.550Z,4376.00
2023-05-19T06:52:11.527Z,4384.00
2023-05-19T06:53:11.514Z,4384.00
2023-05-19T06:54:11.527Z,4408.00
2023-05-19T06:55:11.579Z,4420.00
2023-05-19T06:56:11.566Z,4424.00
2023-05-19T06:57:11.542Z,4440.00
2023-05-19T06:58:11.535Z,4448.00
2023-05-19T06:59:11.508Z,4464.00
2023-05-19T07:00:11.598Z,4472.00
2023-05-19T07:01:11.508Z,4460.00
2023-05-19T07:02:11.563Z,4456.00
2023-05-19T07:03:11.567Z,4456.00
2023-05-19T07:04:11.535Z,4476.00
2023-05-19T07:05:11.507Z,4464.00
2023-05-19T07:06:11.504Z,4456.00
2023-05-19T07:07:11.514Z,4468.00
2023-05-19T07:08:11.494Z,4456.00
2023-05-19T07:09:11.525Z,4464.00
2023-05-19T07:10:11.509Z,4476.00
2023-05-19T07:11:11.583Z,4500.00
2023-05-19T07:12:11.526Z,4488.00
2023-05-19T07:13:11.500Z,4484.00
2023-05-19T07:14:11.488Z,4512.00
2023-05-19T07:15:11.493Z,4524.00
2023-05-19T07:16:11.539Z,4536.00
2023-05-19T07:17:11.489Z,4540.00
2023-05-19T07:18:11.513Z,4528.00
2023-05-19T07:19:11.534Z,4544.00
2023-05-19T07:20:11.501Z,4544.00
2023-05-19T07:21:11.495Z,4532.00
2023-05-19T07:22:11.498Z,4524.00
2023-05-19T07:23:11.525Z,4536.00
2023-05-19T07:24:11.511Z,4520.00
2023-05-19T07:25:11.508Z,4512.00
2023-05-19T07:26:11.477Z,4468.00
2023-05-19T07:27:11.517Z,4464.00
2023-05-19T07:28:11.483Z,4484.00
2023-05-19T07:29:11.501Z,4488.00
2023-05-19T07:30:11.496Z,4484.00
2023-05-19T07:31:11.500Z,4508.00
2023-05-19T07:32:11.507Z,4540.00
2023-05-19T07:33:11.520Z,4536.00
2023-05-19T07:34:11.481Z,4552.00
2023-05-19T07:35:11.499Z,4560.00
2023-05-19T07:36:11.490Z,4560.00
2023-05-19T07:37:11.505Z,4568.00
2023-05-19T07:38:11.504Z,4568.00
2023-05-19T07:39:11.542Z,4556.00
2023-05-19T07:40:11.478Z,4560.00
2023-05-19T07:41:11.560Z,4536.00
2023-05-19T07:42:11.480Z,4468.00
2023-05-19T07:43:11.587Z,4328.00
2023-05-19T07:44:11.481Z,4080.00
2023-05-19T07:45:11.472Z,4156.00
2023-05-19T07:46:11.566Z,4244.00
2023-05-19T07:47:11.469Z,3884.00
2023-05-19T07:48:11.479Z,3756.00
2023-05-19T07:49:11.472Z,3800.00
2023-05-19T07:50:11.592Z,4008.00
2023-05-19T07:52:44.015Z,4492.00
2023-05-19T07:53:43.997Z,4404.00
2023-05-19T07:54:43.995Z,4356.00
2023-05-19T07:55:44.002Z,4356.00
2023-05-19T07:56:43.986Z,4328.00
2023-05-19T07:57:43.986Z,4000.00
2023-05-19T07:58:44.157Z,3800.00
2023-05-19T07:59:43.998Z,3932.00
2023-05-19T08:00:43.988Z,3984.00
2023-05-19T08:01:43.994Z,4028.00
2023-05-19T08:02:44.021Z,4096.00
2023-05-19T08:03:44.074Z,4096.00
2023-05-19T08:04:44.042Z,4068.00
2023-05-19T08:05:43.989Z,4088.00
2023-05-19T08:06:43.992Z,4104.00
2023-05-19T08:07:43.985Z,4144.00
2023-05-19T08:08:43.988Z,4200.00
2023-05-19T08:09:43.981Z,4252.00
2023-05-19T08:10:43.987Z,4252.00
2023-05-19T08:11:43.988Z,4268.00
2023-05-19T08:12:43.993Z,4264.00
2023-05-19T08:13:43.992Z,4236.00
2023-05-19T08:14:44.044Z,4216.00
2023-05-19T08:15:44.018Z,4188.00
2023-05-19T08:16:43.988Z,4172.00
2023-05-19T08:17:44.022Z,4160.00
2023-05-19T08:18:44.042Z,4148.00
2023-05-19T08:19:43.985Z,4132.00
2023-05-19T08:20:44.006Z,4116.00
2023-05-19T08:21:44.014Z,4104.00
2023-05-19T08:22:43.990Z,4092.00
2023-05-19T08:23:43.994Z,4028.00
2023-05-19T08:24:43.997Z,3964.00
2023-05-19T08:25:44.001Z,4000.00
2023-05-19T08:26:44.019Z,4000.00
2023-05-19T08:27:44.040Z,4004.00
2023-05-19T08:28:43.987Z,3976.00
2023-05-19T08:29:43.995Z,3964.00
2023-05-19T08:30:44.064Z,3944.00
2023-05-19T08:31:44.076Z,3932.00
2023-05-19T08:32:44.015Z,3924.00
2023-05-19T08:33:43.994Z,3896.00
2023-05-19T08:34:43.988Z,3876.00
2023-05-19T08:35:43.990Z,3864.00
2023-05-19T08:36:43.987Z,3852.00
2023-05-19T08:37:43.984Z,3836.00
2023-05-19T08:38:43.999Z,3816.00
2023-05-19T08:39:43.998Z,3800.00
2023-05-19T08:40:44.001Z,3780.00
2023-05-19T08:41:44.007Z,3772.00
2023-05-19T08:42:43.990Z,3756.00
2023-05-19T08:43:44.000Z,3744.00
2023-05-19T08:44:44.116Z,3732.00
2023-05-19T08:45:43.982Z,3716.00
2023-05-19T08:46:44.124Z,3712.00
2023-05-19T08:47:44.022Z,3692.00
2023-05-19T08:48:44.022Z,3676.00
2023-05-19T08:49:43.990Z,3656.00
2023-05-19T08:50:43.989Z,3632.00
2023-05-19T08:51:43.979Z,3624.00
2023-05-19T08:52:45.369Z,3616.00
2023-05-19T08:53:43.978Z,3600.00
2023-05-19T08:54:43.986Z,3572.00
2023-05-19T08:55:43.999Z,3516.00
2023-05-19T08:56:43.977Z,3456.00
2023-05-19T08:57:43.993Z,3416.00
2023-05-19T08:58:44.135Z,3428.00
2023-05-19T08:59:44.012Z,3508.00
2023-05-19T09:00:43.983Z,3496.00
2023-05-19T09:01:44.033Z,3468.00
2023-05-19T09:02:54.969Z,3464.00
2023-05-19T09:03:44.077Z,3440.00
2023-05-19T09:04:44.039Z,3420.00
2023-05-19T09:05:44.082Z,3412.00
2023-05-19T09:06:43.984Z,3384.00
2023-05-19T09:07:43.977Z,3380.00
2023-05-19T09:08:43.985Z,3376.00
2023-05-19T09:09:44.190Z,3372.00
2023-05-19T09:10:43.988Z,3344.00
2023-05-19T09:11:43.984Z,3332.00
2023-05-19T09:12:43.992Z,3312.00
2023-05-19T09:13:43.992Z,3300.00
2023-05-19T09:14:43.984Z,3296.00
2023-05-19T09:15:43.984Z,3284.00
2023-05-19T09:16:44.034Z,3284.00
2023-05-19T09:17:44.036Z,3276.00
2023-05-19T09:18:44.106Z,3256.00
2023-05-19T09:19:44.000Z,3256.00
2023-05-19T09:20:44.007Z,3228.00
2023-05-19T09:21:44.679Z,3220.00
2023-05-19T09:22:44.016Z,3212.00
2023-05-19T09:23:43.997Z,3184.00
2023-05-19T09:24:43.980Z,3176.00
2023-05-19T09:25:43.985Z,3180.00
2023-05-19T09:26:44.014Z,3168.00
2023-05-19T09:27:43.995Z,3156.00
2023-05-19T09:28:43.991Z,3152.00
2023-05-19T09:29:43.997Z,3144.00
2023-05-19T09:30:43.993Z,3136.00
2023-05-19T09:31:44.052Z,3120.00
2023-05-19T09:32:44.084Z,3116.00
2023-05-19T09:33:45.915Z,3108.00
2023-05-19T09:34:44.132Z,3092.00
2023-05-19T09:35:44.018Z,3132.00
2023-05-19T09:36:44.002Z,3184.00
2023-05-19T09:37:44.024Z,3236.00
2023-05-19T09:38:44.021Z,3216.00
2023-05-19T09:39:43.998Z,3160.00
2023-05-19T09:40:43.996Z,3104.00
2023-05-19T09:41:44.004Z,3156.00
2023-05-19T09:42:44.030Z,2480.00
2023-05-19T09:43:44.030Z,3260.00
2023-05-19T09:44:44.025Z,3304.00
2023-05-19T09:45:44.051Z,3328.00
2023-05-19T09:46:44.091Z,3272.00
2023-05-19T09:47:44.079Z,3260.00
2023-05-19T09:48:44.050Z,3288.00
2023-05-19T09:49:44.012Z,3320.00
2023-05-19T09:50:44.017Z,3472.00
2023-05-19T09:51:44.009Z,3516.00
2023-05-19T09:52:44.037Z,3552.00
2023-05-19T09:53:44.044Z,2276.00
2023-05-19T09:54:44.891Z,2144.00
2023-05-19T09:55:44.029Z,2060.00
2023-05-19T09:56:44.025Z,3416.00
2023-05-19T09:57:44.040Z,3520.00
2023-05-19T09:58:44.065Z,3688.00
2023-05-19T09:59:44.034Z,3828.00
2023-05-19T10:00:44.015Z,3960.00
2023-05-19T10:01:44.254Z,4000.00
2023-05-19T10:13:37.589Z,2676.00
2023-05-19T10:14:37.537Z,2808.00
2023-05-19T10:15:49.914Z,4432.00
2023-05-19T10:16:37.545Z,4504.00
2023-05-19T10:17:37.547Z,4688.00
2023-05-19T10:18:39.121Z,3460.00
2023-05-19T10:20:37.561Z,3044.00
2023-05-19T10:21:37.553Z,4312.00
2023-05-19T10:22:37.566Z,3852.00
2023-05-19T10:23:37.542Z,4556.00
2023-05-19T10:24:37.550Z,4648.00
2023-05-19T10:25:37.534Z,4824.00
2023-05-19T10:26:37.525Z,4896.00
2023-05-19T10:27:37.533Z,4968.00
2023-05-19T10:28:37.537Z,4872.00
2023-05-19T10:29:37.580Z,4912.00
2023-05-19T10:30:37.545Z,4884.00
2023-05-19T10:31:37.548Z,4904.00
2023-05-19T10:32:37.633Z,3332.00
2023-05-19T10:33:37.537Z,4168.00
2023-05-19T10:34:37.540Z,3084.00
2023-05-19T10:35:37.881Z,3168.00
2023-05-19T10:36:37.548Z,3528.00
2023-05-19T10:37:37.548Z,4572.00
2023-05-19T10:38:37.570Z,3128.00
2023-05-19T10:39:37.624Z,4936.00
2023-05-19T10:40:37.589Z,4964.00
2023-05-19T10:41:37.566Z,5052.00
2023-05-19T10:42:37.584Z,5276.00
2023-05-19T10:43:37.574Z,5452.00
2023-05-19T10:44:37.559Z,5532.00
2023-05-19T10:45:37.649Z,5428.00
2023-05-19T10:46:37.653Z,5380.00
2023-05-19T10:47:37.622Z,3584.00
2023-05-19T10:48:37.572Z,3596.00
2023-05-19T10:49:37.616Z,3296.00
2023-05-19T10:50:37.583Z,3092.00
2023-05-19T10:51:37.569Z,2972.00
2023-05-19T10:52:37.581Z,2988.00
2023-05-19T10:53:37.612Z,3140.00
2023-05-19T10:54:37.582Z,3664.00
2023-05-19T10:55:37.590Z,5412.00
2023-05-19T10:56:37.587Z,5500.00
2023-05-19T10:57:37.622Z,5540.00
2023-05-19T10:58:37.607Z,5608.00
2023-05-19T10:59:37.613Z,5572.00
2023-05-19T11:00:37.605Z,5512.00
2023-05-19T11:01:37.694Z,5312.00
2023-05-19T11:02:37.661Z,5160.00
2023-05-19T11:03:37.670Z,4972.00
2023-05-19T11:04:37.620Z,4788.00
2023-05-19T11:05:37.614Z,4704.00
2023-05-19T11:06:37.626Z,4692.00
2023-05-19T11:07:37.606Z,4724.00
2023-05-19T11:08:37.623Z,4296.00
2023-05-19T11:09:40.533Z,4904.00
2023-05-19T11:10:37.638Z,5076.00
2023-05-19T11:11:37.629Z,5260.00
2023-05-19T11:12:37.632Z,5276.00
2023-05-19T11:13:37.669Z,5292.00
2023-05-19T11:14:37.636Z,4560.00
2023-05-19T11:15:37.636Z,3500.00
2023-05-19T11:16:37.737Z,3400.00
2023-05-19T11:17:37.904Z,3916.00
2023-05-19T11:18:37.686Z,3440.00
2023-05-19T11:19:37.649Z,5792.00
2023-05-19T11:20:37.734Z,5456.00
2023-05-19T11:21:37.644Z,5772.00
2023-05-19T11:22:37.663Z,5924.00
2023-05-19T11:23:37.708Z,5320.00
2023-05-19T11:24:37.695Z,6316.00
2023-05-19T11:25:37.671Z,6416.00
2023-05-19T11:26:37.684Z,6536.00
2023-05-19T11:27:37.682Z,6640.00
2023-05-19T11:28:37.676Z,6720.00
2023-05-19T11:29:37.676Z,6800.00
2023-05-19T11:30:37.722Z,6700.00
2023-05-19T11:31:37.794Z,6456.00
2023-05-19T11:32:37.746Z,6352.00
2023-05-19T11:33:37.786Z,6316.00
2023-05-19T11:34:37.711Z,6164.00
2023-05-19T11:35:37.973Z,6144.00
2023-05-19T11:36:37.709Z,6280.00
2023-05-19T11:37:37.688Z,4164.00
2023-05-19T11:38:37.708Z,6672.00
2023-05-19T11:39:37.700Z,6476.00
2023-05-19T11:40:37.730Z,6876.00
2023-05-19T11:41:37.717Z,6892.00
2023-05-19T11:42:37.757Z,6952.00
2023-05-19T11:43:37.734Z,6900.00
2023-05-19T11:44:37.733Z,6752.00
2023-05-19T11:45:37.752Z,3508.00
2023-05-19T11:46:37.801Z,3320.00
2023-05-19T11:47:50.818Z,3188.00
2023-05-19T11:48:37.844Z,3176.00
2023-05-19T11:49:37.764Z,3536.00
2023-05-19T11:50:37.749Z,6856.00
2023-05-19T11:51:37.753Z,6948.00
2023-05-19T11:52:37.779Z,7212.00
2023-05-19T11:53:37.758Z,7336.00
2023-05-19T11:54:37.770Z,7308.00
2023-05-19T11:55:37.771Z,7324.00
2023-05-19T11:56:37.786Z,5924.00
2023-05-19T11:57:37.790Z,3868.00
2023-05-19T11:58:37.788Z,4452.00
2023-05-19T11:59:37.806Z,3712.00
2023-05-19T12:00:37.783Z,3740.00
2023-05-19T12:01:37.803Z,7776.00
2023-05-19T12:02:37.889Z,7936.00
2023-05-19T12:03:37.949Z,8188.00
2023-05-19T12:04:37.812Z,8276.00
2023-05-19T12:05:41.764Z,8088.00
2023-05-19T12:06:37.899Z,8048.00
2023-05-19T12:07:37.826Z,8228.00
2023-05-19T12:08:37.830Z,8544.00
2023-05-19T12:09:37.838Z,8568.00
2023-05-19T12:10:37.835Z,4176.00
2023-05-19T12:11:37.835Z,4140.00
2023-05-19T12:12:37.832Z,4148.00
2023-05-19T12:13:37.862Z,4364.00
2023-05-19T12:14:37.838Z,4304.00
2023-05-19T12:15:37.845Z,4108.00
2023-05-19T12:16:37.887Z,4176.00
2023-05-19T12:17:37.896Z,8884.00
2023-05-19T12:18:37.932Z,4744.00
2023-05-19T12:19:37.902Z,9520.00
2023-05-19T12:20:37.903Z,9348.00
2023-05-19T12:21:37.904Z,9280.00
2023-05-19T12:22:37.889Z,9088.00
2023-05-19T12:23:37.890Z,9112.00
2023-05-19T12:24:37.905Z,9020.00
2023-05-19T12:25:37.976Z,9076.00
2023-05-19T12:26:37.920Z,9228.00
2023-05-19T12:27:37.927Z,9252.00
2023-05-19T12:28:37.915Z,9456.00
2023-05-19T12:29:37.917Z,9724.00
2023-05-19T12:30:38.180Z,10092.00
2023-05-19T12:31:38.096Z,10556.00
2023-05-19T12:32:38.013Z,11012.00
2023-05-19T12:33:37.929Z,11524.00
2023-05-19T12:34:37.935Z,11636.00
2023-05-19T12:35:38.078Z,12060.00
2023-05-19T12:38:10.557Z,12528.00
2023-05-19T12:39:10.511Z,10768.00
2023-05-19T12:40:10.520Z,6176.00
2023-05-19T12:41:10.513Z,5880.00
2023-05-19T12:42:10.544Z,6108.00
2023-05-19T12:43:10.515Z,10936.00
2023-05-19T12:44:10.536Z,6668.00
2023-05-19T12:45:10.529Z,6232.00
2023-05-19T12:46:10.579Z,5944.00
2023-05-19T12:47:10.575Z,5688.00
2023-05-19T12:48:10.586Z,5592.00
2023-05-19T12:49:10.549Z,6704.00
2023-05-19T12:50:10.706Z,7548.00
2023-05-19T12:51:10.619Z,12508.00
2023-05-19T12:52:13.137Z,6276.00
2023-05-19T12:53:10.587Z,6144.00
2023-05-19T12:54:10.639Z,6008.00
2023-05-19T12:55:10.742Z,5652.00
2023-05-19T12:56:10.615Z,5612.00
2023-05-19T12:57:10.619Z,5740.00
2023-05-19T12:58:10.609Z,7028.00
2023-05-19T12:59:10.619Z,9896.00
2023-05-19T13:00:10.656Z,18944.00
2023-05-19T13:01:10.708Z,18816.00
2023-05-19T13:02:10.955Z,8012.00
2023-05-19T13:03:10.736Z,6024.00
2023-05-19T13:04:11.091Z,12264.00
2023-05-19T13:05:10.635Z,20480.00
2023-05-19T13:06:10.635Z,4912.00
2023-05-19T13:07:10.657Z,4368.00
2023-05-19T13:08:10.643Z,4168.00
2023-05-19T13:09:10.645Z,3932.00
2023-05-19T13:10:10.710Z,3752.00
2023-05-19T13:11:10.664Z,3620.00
2023-05-19T13:12:10.676Z,3584.00
2023-05-19T13:13:10.662Z,22656.00
2023-05-19T13:14:10.681Z,22848.00
2023-05-19T13:15:10.678Z,23072.00
2023-05-19T13:16:10.702Z,23552.00
2023-05-19T13:17:10.728Z,21728.00
2023-05-19T13:18:10.705Z,24672.00
2023-05-19T13:19:23.926Z,5284.00
2023-05-19T13:20:10.717Z,25376.00
2023-05-19T13:21:10.716Z,26048.00
2023-05-19T13:22:10.704Z,26656.00
2023-05-19T13:23:10.738Z,26816.00
2023-05-19T13:24:10.737Z,27008.00
2023-05-19T13:25:10.718Z,27424.00
2023-05-19T13:26:10.780Z,27648.00
2023-05-19T13:27:10.732Z,27776.00
2023-05-19T13:28:10.750Z,27968.00
2023-05-19T13:29:10.749Z,27424.00
2023-05-19T13:30:10.774Z,27392.00
2023-05-19T13:31:10.796Z,28352.00
2023-05-19T13:32:10.801Z,23136.00
2023-05-19T13:33:10.823Z,12396.00
2023-05-19T13:34:10.785Z,28512.00
2023-05-19T13:35:10.825Z,25536.00
2023-05-19T13:36:10.826Z,21088.00
2023-05-19T13:37:10.873Z,12480.00
2023-05-19T13:38:11.005Z,6956.00
2023-05-19T13:39:10.820Z,7084.00
2023-05-19T13:40:10.862Z,9612.00
2023-05-19T13:41:10.966Z,31616.00
2023-05-19T13:42:10.828Z,31360.00
2023-05-19T13:43:10.825Z,30880.00
2023-05-19T13:44:10.888Z,30272.00
2023-05-19T13:45:10.863Z,29984.00
2023-05-19T13:46:10.926Z,29792.00
2023-05-19T13:47:10.965Z,29568.00
2023-05-19T13:48:10.967Z,29152.00
2023-05-19T13:49:10.896Z,28832.00
2023-05-19T13:50:10.868Z,28416.00
2023-05-19T13:51:10.891Z,28608.00
2023-05-19T13:52:10.877Z,19808.00
2023-05-19T13:53:10.887Z,29184.00
2023-05-19T13:54:10.899Z,9836.00
2023-05-19T13:55:10.913Z,29088.00
2023-05-19T13:56:10.916Z,28480.00
2023-05-19T13:57:10.911Z,27968.00
2023-05-19T13:58:11.231Z,27424.00
2023-05-19T13:59:10.932Z,27008.00
2023-05-19T14:00:10.955Z,26592.00
2023-05-19T14:01:10.973Z,26400.00
2023-05-19T14:02:11.025Z,26176.00
2023-05-19T14:03:11.088Z,26016.00
2023-05-19T14:04:11.087Z,25696.00
2023-05-19T14:05:10.966Z,25408.00
2023-05-19T14:06:10.978Z,25216.00
2023-05-19T14:07:10.994Z,24896.00
2023-05-19T14:08:11.030Z,24480.00
2023-05-19T14:09:11.014Z,24224.00
2023-05-19T14:10:11.041Z,24064.00
2023-05-19T14:11:11.054Z,23328.00
2023-05-19T14:12:11.052Z,23296.00
2023-05-19T14:14:11.628Z,5804.00
2023-05-19T14:15:11.597Z,5352.00
2023-05-19T14:16:11.167Z,6028.00
2023-05-19T14:17:11.065Z,6132.00
2023-05-19T14:18:11.218Z,5944.00
2023-05-19T14:19:11.120Z,22624.00
2023-05-19T14:20:11.108Z,22016.00
2023-05-19T14:21:11.093Z,21472.00
2023-05-19T14:22:11.131Z,21408.00
2023-05-19T14:23:11.139Z,21664.00
2023-05-19T14:24:11.140Z,21760.00
2023-05-19T14:25:11.158Z,9556.00
2023-05-19T14:26:11.150Z,7292.00
2023-05-19T14:27:11.138Z,20896.00
2023-05-19T14:28:11.185Z,8504.00
2023-05-19T14:29:11.165Z,6012.00
2023-05-19T14:30:11.176Z,5932.00
2023-05-19T14:31:11.187Z,10604.00
2023-05-19T14:32:11.173Z,15568.00
2023-05-19T14:33:11.287Z,5216.00
2023-05-19T14:34:11.213Z,4292.00
2023-05-19T14:35:11.215Z,4200.00
2023-05-19T14:36:11.217Z,4528.00
2023-05-19T14:37:11.225Z,4788.00
2023-05-19T14:38:11.304Z,7252.00
2023-05-19T14:39:11.232Z,4868.00
2023-05-19T14:40:11.232Z,8648.00
2023-05-19T14:41:11.236Z,19584.00
2023-05-19T14:42:11.242Z,22848.00
2023-05-19T14:43:11.248Z,39456.00
2023-05-19T14:44:11.235Z,54912.00
2023-05-19T14:45:11.413Z,60576.00
2023-05-19T14:46:11.299Z,62624.00
2023-05-19T14:47:11.529Z,62624.00
2023-05-19T14:48:11.278Z,51136.00
2023-05-19T14:49:11.273Z,15080.00
2023-05-19T14:50:11.285Z,30304.00
2023-05-19T14:51:11.311Z,19264.00
2023-05-19T14:52:11.282Z,10260.00
2023-05-19T14:53:11.288Z,25440.00
2023-05-19T14:54:11.292Z,15360.00
2023-05-19T14:55:11.305Z,18592.00
2023-05-19T14:56:11.338Z,60480.00
2023-05-19T14:57:11.315Z,22080.00
2023-05-19T14:58:26.764Z,16560.00
2023-05-19T14:59:11.324Z,58208.00
2023-05-19T15:00:11.330Z,56832.00
2023-05-19T15:01:11.371Z,55616.00
2023-05-19T15:02:11.372Z,52160.00
2023-05-19T15:03:11.361Z,50304.00
2023-05-19T15:04:11.380Z,49696.00
2023-05-19T15:05:11.341Z,48352.00
2023-05-19T15:06:11.387Z,47264.00
2023-05-19T15:07:11.452Z,44672.00
2023-05-19T15:08:11.372Z,43904.00
2023-05-19T15:09:11.372Z,43456.00
2023-05-19T15:10:11.390Z,41280.00
2023-05-19T15:11:11.449Z,42528.00
2023-05-19T15:12:11.387Z,44544.00
2023-05-19T15:13:11.388Z,42048.00
2023-05-19T15:14:11.425Z,37920.00
2023-05-19T15:15:11.404Z,34144.00
2023-05-19T15:17:11.501Z,8676.00
2023-05-19T15:18:11.540Z,4476.00
2023-05-19T15:19:11.506Z,3644.00
2023-05-19T15:20:11.452Z,3396.00
2023-05-19T15:21:11.448Z,3412.00
2023-05-19T15:22:11.445Z,3452.00
2023-05-19T15:23:11.469Z,3488.00
2023-05-19T15:24:11.466Z,3448.00
2023-05-19T15:25:11.482Z,6740.00
2023-05-19T15:26:11.474Z,3132.00
2023-05-19T15:27:11.492Z,3240.00
2023-05-19T15:28:11.494Z,5240.00
2023-05-19T15:29:11.474Z,6036.00
2023-05-19T15:30:11.494Z,4128.00
2023-05-19T15:31:11.554Z,4736.00
2023-05-19T15:32:11.520Z,4916.00
2023-05-19T15:33:11.541Z,4652.00
2023-05-19T15:34:11.518Z,4668.00
2023-05-19T15:35:11.554Z,4872.00
2023-05-19T15:36:11.501Z,7172.00
2023-05-19T15:37:11.534Z,6192.00
2023-05-19T15:38:11.535Z,6224.00
2023-05-19T15:39:11.525Z,6524.00
2023-05-19T15:40:11.534Z,6388.00
2023-05-19T15:41:11.546Z,5828.00
2023-05-19T15:42:11.534Z,4532.00
2023-05-19T15:43:11.545Z,4004.00
2023-05-19T15:44:11.555Z,3360.00
2023-05-19T15:45:11.555Z,2988.00
2023-05-19T15:46:11.554Z,2676.00
2023-05-19T15:47:11.548Z,2492.00
2023-05-19T15:48:11.701Z,2328.00
2023-05-19T15:49:12.585Z,2272.00
2023-05-19T15:50:11.631Z,2248.00
2023-05-19T15:51:11.546Z,2212.00
2023-05-19T15:52:11.572Z,2164.00
2023-05-19T15:53:11.555Z,2132.00
2023-05-19T15:54:11.577Z,2164.00
2023-05-19T15:55:11.564Z,2264.00
2023-05-19T15:56:11.595Z,2408.00
2023-05-19T15:57:11.582Z,2616.00
2023-05-19T15:58:11.573Z,2772.00
2023-05-19T15:59:11.622Z,3068.00
2023-05-19T16:00:11.573Z,3332.00
2023-05-19T16:01:11.628Z,3500.00
2023-05-19T16:12:49.402Z,2712.00
2023-05-19T16:13:49.381Z,2776.00
2023-05-19T16:14:49.391Z,2832.00
2023-05-19T16:15:49.393Z,2900.00
2023-05-19T16:16:49.491Z,3040.00
2023-05-19T16:17:49.372Z,3224.00
2023-05-19T16:18:49.447Z,3492.00
2023-05-19T16:19:49.362Z,3772.00
2023-05-19T16:20:49.379Z,3980.00
2023-05-19T16:21:49.381Z,3952.00
2023-05-19T16:22:49.383Z,4064.00
2023-05-19T16:23:49.375Z,4040.00
2023-05-19T16:24:49.349Z,3980.00
2023-05-19T16:25:49.370Z,3976.00
2023-05-19T16:26:49.400Z,3916.00
2023-05-19T16:27:49.386Z,3848.00
2023-05-19T16:28:49.410Z,3584.00
2023-05-19T16:29:49.371Z,3304.00
2023-05-19T16:30:49.359Z,3176.00